Terminal Aerodrome Forecast
Issued by NWS Burlington, VT

Home | Current Version | Previous Version | Text Only | Print | Product List | Glossary On
Versions: 1 2 3 4 5 6 7 8 9 10 11 12
834
FTUS41 KBTV 260530
TAFBTV
TAF
KBTV 260530Z 2606/2706 20008KT P6SM SCT060
     FM260900 20008KT P6SM VCSH BKN050
     FM261500 26006KT P6SM SCT050
     FM261800 31010KT P6SM SKC
     FM270000 34004KT P6SM SKC=

USA.gov is the U.S. government's official web portal to all federal, state and local government web resources and services.